createdAt,value
2022-09-06T00:00:28.932Z,1.00
2022-09-06T00:02:58.502Z,1.00
2022-09-06T00:05:26.693Z,1.00
2022-09-06T00:07:54.690Z,1.00
2022-09-06T00:10:24.045Z,1.00
2022-09-06T00:12:52.018Z,1.00
2022-09-06T00:15:20.046Z,1.00
2022-09-06T00:17:48.138Z,1.00
2022-09-06T00:20:16.566Z,1.00
2022-09-06T00:22:44.645Z,1.00
2022-09-06T00:25:12.619Z,1.00
2022-09-06T00:27:41.888Z,1.00
2022-09-06T00:30:12.764Z,1.00
2022-09-06T00:32:41.205Z,1.00
2022-09-06T00:35:09.170Z,1.00
2022-09-06T00:37:37.054Z,1.00
2022-09-06T00:40:05.408Z,1.00
2022-09-06T00:42:33.382Z,1.00
2022-09-06T00:45:03.073Z,1.00
2022-09-06T00:47:31.238Z,1.00
2022-09-06T00:50:02.129Z,1.00
2022-09-06T00:52:31.592Z,1.00
2022-09-06T00:55:01.206Z,1.00
2022-09-06T00:57:32.098Z,1.00
2022-09-06T01:00:03.342Z,1.00
2022-09-06T01:02:31.445Z,1.00
2022-09-06T01:04:59.669Z,1.00
2022-09-06T01:07:38.805Z,1.00
2022-09-06T01:10:26.958Z,1.00
2022-09-06T01:13:04.998Z,1.00
2022-09-06T01:15:43.314Z,1.00
2022-09-06T01:18:23.858Z,1.00
2022-09-06T01:21:04.013Z,1.00
2022-09-06T01:24:17.133Z,1.00
2022-09-06T01:27:13.704Z,1.00
2022-09-06T01:29:46.990Z,1.00
2022-09-06T01:32:24.203Z,1.00
2022-09-06T01:34:59.717Z,1.00
2022-09-06T01:37:27.695Z,1.00
2022-09-06T01:39:58.177Z,1.00
2022-09-06T01:42:29.635Z,1.00
2022-09-06T01:45:02.454Z,1.00
2022-09-06T01:47:36.734Z,1.00
2022-09-06T01:50:24.302Z,1.00
2022-09-06T01:53:02.269Z,1.00
2022-09-06T01:55:33.616Z,1.00
2022-09-06T01:58:15.624Z,1.00
2022-09-06T02:00:52.881Z,1.00
2022-09-06T02:03:29.188Z,1.00
2022-09-06T02:06:00.490Z,1.00
2022-09-06T02:08:33.099Z,1.00
2022-09-06T02:11:04.328Z,1.00
2022-09-06T02:13:36.281Z,1.00
2022-09-06T02:16:07.500Z,1.00
2022-09-06T02:18:41.331Z,1.00
2022-09-06T02:21:12.403Z,1.00
2022-09-06T02:23:45.225Z,1.00
2022-09-06T02:26:18.879Z,1.00
2022-09-06T02:28:47.064Z,1.00
2022-09-06T02:31:22.944Z,1.00
2022-09-06T02:33:52.665Z,1.00
2022-09-06T02:36:21.143Z,1.00
2022-09-06T02:38:49.440Z,1.00
2022-09-06T02:41:22.527Z,1.00
2022-09-06T02:43:50.890Z,1.00
2022-09-06T02:46:20.237Z,1.00
2022-09-06T02:48:48.229Z,7.00
2022-09-06T02:51:16.159Z,11.20
2022-09-06T02:53:44.220Z,23.50
2022-09-06T02:56:14.414Z,44.00
2022-09-06T02:58:42.339Z,53.10
2022-09-06T03:01:10.380Z,61.20
2022-09-06T03:03:39.722Z,87.50
2022-09-06T03:06:08.003Z,96.10
2022-09-06T03:08:36.534Z,99.90
2022-09-06T03:11:04.498Z,99.90
2022-09-06T03:13:32.480Z,99.90
2022-09-06T03:16:01.520Z,99.90
2022-09-06T03:18:31.767Z,99.90
2022-09-06T03:21:01.324Z,99.90
2022-09-06T03:23:30.345Z,99.90
2022-09-06T03:25:58.430Z,99.90
2022-09-06T03:28:27.079Z,99.90
2022-09-06T03:30:55.258Z,99.90
2022-09-06T03:33:23.666Z,99.90
2022-09-06T03:35:52.809Z,99.90
2022-09-06T03:38:23.397Z,99.90
2022-09-06T03:40:52.791Z,99.90
2022-09-06T03:43:21.985Z,99.90
2022-09-06T03:45:51.402Z,99.90
2022-09-06T03:48:20.981Z,99.90
2022-09-06T03:50:50.236Z,99.90
2022-09-06T03:53:23.089Z,99.90
2022-09-06T03:55:55.330Z,99.90
2022-09-06T03:58:24.830Z,99.90
2022-09-06T04:01:01.856Z,99.90
2022-09-06T04:03:29.850Z,99.90
2022-09-06T04:05:57.782Z,99.90
2022-09-06T04:08:27.148Z,99.90
2022-09-06T04:10:55.973Z,1.00
2022-09-06T04:13:25.023Z,1.00
2022-09-06T04:15:53.525Z,1.00
2022-09-06T04:18:22.591Z,1.00
2022-09-06T04:20:55.929Z,1.00
2022-09-06T04:23:26.399Z,1.00
2022-09-06T04:25:55.884Z,1.00
2022-09-06T04:28:24.595Z,1.00
2022-09-06T04:31:01.938Z,1.00
2022-09-06T04:33:33.728Z,1.00
2022-09-06T04:36:04.637Z,1.00
2022-09-06T04:38:37.374Z,1.00
2022-09-06T04:41:06.409Z,1.00
2022-09-06T04:43:34.331Z,13.50
2022-09-06T04:46:05.710Z,41.20
2022-09-06T04:48:34.072Z,49.20
2022-09-06T04:51:01.976Z,39.60
2022-09-06T04:53:30.029Z,90.70
2022-09-06T04:55:59.854Z,34.30
2022-09-06T04:58:29.829Z,24.20
2022-09-06T05:01:00.322Z,8.20
2022-09-06T05:03:28.605Z,90.80
2022-09-06T05:06:08.716Z,82.60
2022-09-06T05:08:39.971Z,30.50
2022-09-06T05:11:10.955Z,1.00
2022-09-06T05:13:39.468Z,1.00
2022-09-06T05:16:09.284Z,1.00
2022-09-06T05:18:37.283Z,1.00
2022-09-06T05:21:05.377Z,1.00
2022-09-06T05:23:33.311Z,1.00
2022-09-06T05:26:01.269Z,1.00
2022-09-06T05:28:30.727Z,1.00
2022-09-06T05:31:07.396Z,1.00
2022-09-06T05:33:35.386Z,1.00
2022-09-06T05:36:04.096Z,1.00
2022-09-06T05:38:32.217Z,1.00
2022-09-06T05:41:00.314Z,1.00
2022-09-06T05:43:28.236Z,1.00
2022-09-06T05:45:57.550Z,1.00
2022-09-06T05:48:25.636Z,1.00
2022-09-06T05:51:01.878Z,1.00
2022-09-06T05:53:35.155Z,1.00
2022-09-06T05:56:03.641Z,1.00
2022-09-06T05:58:31.775Z,1.00
2022-09-06T06:01:08.475Z,26.50
2022-09-06T06:03:36.490Z,1.00
2022-09-06T06:06:04.435Z,1.00
2022-09-06T06:08:32.393Z,1.00
2022-09-06T06:11:03.901Z,1.00
2022-09-06T06:13:34.901Z,1.00
2022-09-06T06:16:04.218Z,1.00
2022-09-06T06:18:33.622Z,1.00
2022-09-06T06:21:15.265Z,1.00
2022-09-06T06:23:44.368Z,1.00
2022-09-06T06:26:13.748Z,1.00
2022-09-06T06:28:42.571Z,99.90
2022-09-06T06:31:12.140Z,99.90
2022-09-06T06:33:41.649Z,99.90
2022-09-06T06:36:21.838Z,99.90
2022-09-06T06:38:50.996Z,99.90
2022-09-06T06:41:21.252Z,99.90
2022-09-06T06:43:49.289Z,99.90
2022-09-06T06:46:19.054Z,99.90
2022-09-06T06:48:54.049Z,99.90
2022-09-06T06:51:24.021Z,99.90
2022-09-06T06:53:56.686Z,99.90
2022-09-06T06:56:26.539Z,99.90
2022-09-06T06:58:57.421Z,99.90
2022-09-06T07:01:27.229Z,99.90
2022-09-06T07:03:56.654Z,99.90
2022-09-06T07:09:16.103Z,99.90
2022-09-06T07:11:44.053Z,99.90
2022-09-06T07:14:12.011Z,99.90
2022-09-06T07:16:39.956Z,99.90
2022-09-06T07:22:00.273Z,99.90
2022-09-06T07:24:30.528Z,99.90
2022-09-06T07:29:46.478Z,99.90
2022-09-06T07:32:16.466Z,99.90
2022-09-06T07:34:45.738Z,96.00
2022-09-06T07:37:13.755Z,94.10
2022-09-06T07:39:41.761Z,91.60
2022-09-06T07:42:09.802Z,89.70
2022-09-06T07:44:37.711Z,97.20
2022-09-06T07:55:31.670Z,99.90
2022-09-06T07:57:59.651Z,99.90
2022-09-06T08:00:30.187Z,99.90
2022-09-06T08:02:58.118Z,99.90
2022-09-06T08:11:03.282Z,99.90
2022-09-06T08:13:33.498Z,99.90
2022-09-06T08:16:01.974Z,99.90
2022-09-06T08:18:30.343Z,99.90
2022-09-06T08:21:11.541Z,99.90
2022-09-06T08:23:42.687Z,99.90
2022-09-06T08:26:10.783Z,99.90
2022-09-06T08:28:38.924Z,99.90
2022-09-06T08:31:08.568Z,99.90
2022-09-06T08:33:36.650Z,99.90
2022-09-06T08:36:07.119Z,99.90
2022-09-06T08:38:35.958Z,99.90
2022-09-06T08:41:10.148Z,99.90
2022-09-06T08:43:39.726Z,99.90
2022-09-06T08:46:10.395Z,99.90
2022-09-06T08:48:39.936Z,99.90
2022-09-06T08:51:38.364Z,99.90
2022-09-06T08:54:13.346Z,99.90
2022-09-06T08:56:56.262Z,99.90
2022-09-06T08:59:24.574Z,99.90
2022-09-06T09:02:01.118Z,99.90
2022-09-06T09:04:31.613Z,99.90
2022-09-06T09:07:08.734Z,99.90
2022-09-06T09:09:38.933Z,99.90
2022-09-06T09:12:08.143Z,99.90
2022-09-06T09:14:38.634Z,99.90
2022-09-06T09:17:13.474Z,99.90
2022-09-06T09:19:43.007Z,99.90
2022-09-06T09:22:13.937Z,97.60
2022-09-06T09:24:42.147Z,72.10
2022-09-06T09:27:13.343Z,99.70
2022-09-06T09:32:47.802Z,74.30
2022-09-06T09:35:22.337Z,73.80
2022-09-06T09:38:07.812Z,73.40
2022-09-06T09:40:41.890Z,94.40
2022-09-06T09:43:17.560Z,97.20
2022-09-06T09:45:46.381Z,60.10
2022-09-06T09:48:21.182Z,43.70
2022-09-06T09:50:49.413Z,35.20
2022-09-06T09:53:21.513Z,25.70
2022-09-06T09:55:50.546Z,22.80
2022-09-06T09:58:33.275Z,20.90
2022-09-06T10:01:12.929Z,35.30
2022-09-06T10:09:32.143Z,1.00
2022-09-06T10:12:01.580Z,1.00
2022-09-06T10:14:35.554Z,1.00
2022-09-06T10:17:03.520Z,1.00
2022-09-06T10:19:43.042Z,1.00
2022-09-06T10:22:23.513Z,1.00
2022-09-06T10:25:06.394Z,1.00
2022-09-06T10:27:55.514Z,1.00
2022-09-06T10:30:32.440Z,1.00
2022-09-06T10:33:06.472Z,1.00
2022-09-06T10:35:38.845Z,1.00
2022-09-06T10:38:26.973Z,1.00
2022-09-06T10:41:11.565Z,1.00
2022-09-06T10:43:48.760Z,1.00
2022-09-06T10:46:18.707Z,1.00
2022-09-06T10:48:47.328Z,1.00
2022-09-06T10:51:22.252Z,1.00
2022-09-06T10:53:54.951Z,1.00
2022-09-06T10:56:30.037Z,1.00
2022-09-06T11:02:02.499Z,1.00
2022-09-06T11:07:29.432Z,1.00
2022-09-06T11:10:00.639Z,1.00
2022-09-06T11:12:37.889Z,1.00
2022-09-06T11:15:09.585Z,1.00
2022-09-06T11:17:43.033Z,1.00
2022-09-06T11:20:18.414Z,1.00
2022-09-06T11:23:21.796Z,1.00
2022-09-06T11:26:11.639Z,1.00
2022-09-06T11:28:47.168Z,1.00
2022-09-06T11:34:21.701Z,1.00
2022-09-06T11:36:51.777Z,1.00
2022-09-06T11:42:40.971Z,1.00
2022-09-06T11:45:21.428Z,1.00
2022-09-06T11:47:52.878Z,1.00
2022-09-06T11:50:43.080Z,1.00
2022-09-06T11:53:17.046Z,1.00
2022-09-06T11:55:46.908Z,1.00
2022-09-06T11:58:27.234Z,1.00
2022-09-06T12:01:32.638Z,1.00
2022-09-06T12:04:08.771Z,1.00
2022-09-06T12:06:40.807Z,1.00
2022-09-06T12:09:28.566Z,1.00
2022-09-06T12:11:57.705Z,1.00
2022-09-06T12:14:32.201Z,1.00
2022-09-06T12:17:27.946Z,1.00
2022-09-06T12:20:06.827Z,1.00
2022-09-06T12:22:55.236Z,1.00
2022-09-06T12:25:58.545Z,1.00
2022-09-06T12:28:35.026Z,1.00
2022-09-06T12:31:25.930Z,1.00
2022-09-06T12:33:54.800Z,1.00
2022-09-06T12:36:29.620Z,1.00
2022-09-06T12:38:59.843Z,1.00
2022-09-06T12:41:29.821Z,1.00
2022-09-06T12:44:02.844Z,1.00
2022-09-06T12:46:32.468Z,1.00
2022-09-06T12:49:07.164Z,1.00
2022-09-06T12:51:37.109Z,1.00
2022-09-06T12:54:17.743Z,1.00
2022-09-06T12:56:45.772Z,1.00
2022-09-06T12:59:17.068Z,1.00
2022-09-06T13:01:53.805Z,1.00
2022-09-06T13:04:28.916Z,1.00
2022-09-06T13:06:59.538Z,1.00
2022-09-06T13:09:29.946Z,1.00
2022-09-06T13:12:05.707Z,1.00
2022-09-06T13:14:34.898Z,1.00
2022-09-06T13:17:02.908Z,1.00
2022-09-06T13:19:33.921Z,1.00
2022-09-06T13:22:05.398Z,1.00
2022-09-06T13:24:47.060Z,1.00
2022-09-06T13:27:27.384Z,1.00
2022-09-06T13:29:57.697Z,1.00
2022-09-06T13:32:27.061Z,1.00
2022-09-06T13:34:57.794Z,1.00
2022-09-06T13:37:28.916Z,1.00
2022-09-06T13:39:57.962Z,1.00
2022-09-06T13:42:28.378Z,1.00
2022-09-06T13:45:00.063Z,1.00
2022-09-06T13:47:30.810Z,1.00
2022-09-06T13:49:58.744Z,1.00
2022-09-06T13:52:28.060Z,1.00
2022-09-06T13:54:56.146Z,1.00
2022-09-06T13:57:24.717Z,1.00
2022-09-06T13:59:53.164Z,1.00
2022-09-06T14:02:24.892Z,1.00
2022-09-06T14:04:52.968Z,1.00
2022-09-06T14:07:21.238Z,1.00
2022-09-06T14:09:51.195Z,1.00
2022-09-06T14:12:19.199Z,1.00
2022-09-06T14:14:47.258Z,1.00
2022-09-06T14:17:15.303Z,1.00
2022-09-06T14:19:43.309Z,1.00
2022-09-06T14:22:11.324Z,1.00
2022-09-06T14:24:39.648Z,1.00
2022-09-06T14:27:08.983Z,1.00
2022-09-06T14:29:37.060Z,1.00
2022-09-06T14:32:05.225Z,1.00
2022-09-06T14:34:33.173Z,1.00
2022-09-06T14:37:01.136Z,1.00
2022-09-06T14:39:29.307Z,1.00
2022-09-06T14:41:57.431Z,1.00
2022-09-06T14:44:28.902Z,1.00
2022-09-06T14:46:56.894Z,1.00
2022-09-06T14:49:25.204Z,1.00
2022-09-06T14:51:53.919Z,1.00
2022-09-06T14:54:24.150Z,1.00
2022-09-06T14:56:55.400Z,1.00
2022-09-06T14:59:23.471Z,1.00
2022-09-06T15:01:52.878Z,1.00
2022-09-06T15:04:20.939Z,1.00
2022-09-06T15:06:49.035Z,1.00
2022-09-06T15:09:18.090Z,1.00
2022-09-06T15:11:48.600Z,1.00
2022-09-06T15:14:17.740Z,1.00
2022-09-06T15:16:46.682Z,1.00
2022-09-06T15:19:16.125Z,1.00
2022-09-06T15:21:47.029Z,1.00
2022-09-06T15:24:15.355Z,1.00
2022-09-06T15:26:44.263Z,1.00
2022-09-06T15:29:13.805Z,1.00
2022-09-06T15:31:42.548Z,1.00
2022-09-06T15:34:12.112Z,1.00
2022-09-06T15:36:41.945Z,1.00
2022-09-06T15:39:10.056Z,1.00
2022-09-06T15:41:40.335Z,1.00
2022-09-06T15:44:11.676Z,1.00
2022-09-06T15:46:46.286Z,1.00
2022-09-06T15:49:16.748Z,1.00
2022-09-06T15:51:48.566Z,1.00
2022-09-06T15:54:18.351Z,1.00
2022-09-06T15:56:45.881Z,1.00
2022-09-06T15:59:14.058Z,1.00
2022-09-06T16:01:42.182Z,1.00
2022-09-06T16:04:12.412Z,1.00
2022-09-06T16:06:42.751Z,1.00
2022-09-06T16:09:14.394Z,1.00
2022-09-06T16:11:42.760Z,1.00
2022-09-06T16:14:12.984Z,1.00
2022-09-06T16:16:42.346Z,1.00
2022-09-06T16:19:10.906Z,1.00
2022-09-06T16:21:41.694Z,1.00
2022-09-06T16:24:13.024Z,1.00
2022-09-06T16:26:42.560Z,1.00
2022-09-06T16:29:12.339Z,1.00
2022-09-06T16:31:41.057Z,1.00
2022-09-06T16:34:09.714Z,1.00
2022-09-06T16:36:37.756Z,1.00
2022-09-06T16:39:06.496Z,1.00
2022-09-06T16:41:40.671Z,1.00
2022-09-06T16:44:09.679Z,1.00
2022-09-06T16:46:40.034Z,1.00
2022-09-06T16:49:08.093Z,1.00
2022-09-06T16:51:36.203Z,1.00
2022-09-06T16:54:04.494Z,1.00
2022-09-06T16:56:35.715Z,1.00
2022-09-06T16:59:07.048Z,1.00
2022-09-06T17:01:36.579Z,1.00
2022-09-06T17:04:05.798Z,1.00
2022-09-06T17:06:38.177Z,1.00
2022-09-06T17:09:06.315Z,1.00
2022-09-06T17:11:34.290Z,1.00
2022-09-06T17:14:02.311Z,1.00
2022-09-06T17:16:49.347Z,1.00
2022-09-06T17:19:17.440Z,1.00
2022-09-06T17:21:45.696Z,1.00
2022-09-06T17:24:13.699Z,1.00
2022-09-06T17:26:41.761Z,1.00
2022-09-06T17:29:10.498Z,1.00
2022-09-06T17:31:40.152Z,1.00
2022-09-06T17:34:10.795Z,1.00
2022-09-06T17:36:39.600Z,1.00
2022-09-06T17:39:09.653Z,1.00
2022-09-06T17:41:39.467Z,1.00
2022-09-06T17:44:10.409Z,1.00
2022-09-06T17:46:51.915Z,1.00
2022-09-06T17:49:27.050Z,1.00
2022-09-06T17:51:55.246Z,1.00
2022-09-06T17:54:23.476Z,1.00
2022-09-06T17:56:51.572Z,1.00
2022-09-06T17:59:22.036Z,1.00
2022-09-06T18:01:52.406Z,1.00
2022-09-06T18:04:22.678Z,1.00
2022-09-06T18:06:50.718Z,1.00
2022-09-06T18:09:18.692Z,1.00
2022-09-06T18:11:47.223Z,1.00
2022-09-06T18:14:17.474Z,1.00
2022-09-06T18:16:48.955Z,1.00
2022-09-06T18:19:19.417Z,1.00
2022-09-06T18:21:48.955Z,1.00
2022-09-06T18:24:17.437Z,1.00
2022-09-06T18:26:45.949Z,1.00
2022-09-06T18:29:16.613Z,1.00
2022-09-06T18:31:45.818Z,1.00
2022-09-06T18:34:15.931Z,1.00
2022-09-06T18:36:45.284Z,1.00
2022-09-06T18:39:13.418Z,1.00
2022-09-06T18:41:58.879Z,1.00
2022-09-06T18:44:32.329Z,1.00
2022-09-06T18:47:02.152Z,1.00
2022-09-06T18:49:31.197Z,1.00
2022-09-06T18:52:00.950Z,1.00
2022-09-06T18:54:29.481Z,1.00
2022-09-06T18:56:57.647Z,1.00
2022-09-06T18:59:25.997Z,1.00
2022-09-06T19:01:54.385Z,1.00
2022-09-06T19:04:23.021Z,1.00
2022-09-06T19:06:53.069Z,1.00
2022-09-06T19:09:23.099Z,1.00
2022-09-06T19:11:52.715Z,1.00
2022-09-06T19:14:20.944Z,1.00
2022-09-06T19:16:50.847Z,1.00
2022-09-06T19:19:19.166Z,1.00
2022-09-06T19:21:47.156Z,1.00
2022-09-06T19:24:16.077Z,1.00
2022-09-06T19:26:47.038Z,1.00
2022-09-06T19:29:17.416Z,1.00
2022-09-06T19:31:46.912Z,1.00
2022-09-06T19:34:15.898Z,1.00
2022-09-06T19:36:44.956Z,1.00
2022-09-06T19:39:15.334Z,1.00
2022-09-06T19:41:46.689Z,1.00
2022-09-06T19:44:15.772Z,1.00
2022-09-06T19:46:46.139Z,1.00
2022-09-06T19:49:15.185Z,1.00
2022-09-06T19:51:46.777Z,1.00
2022-09-06T19:54:15.823Z,1.00
2022-09-06T19:56:46.110Z,1.00
2022-09-06T19:59:15.845Z,1.00
2022-09-06T20:01:45.333Z,1.00
2022-09-06T20:04:16.003Z,1.00
2022-09-06T20:06:44.099Z,1.00
2022-09-06T20:09:15.855Z,1.00
2022-09-06T20:11:46.340Z,1.00
2022-09-06T20:14:14.884Z,1.00
2022-09-06T20:16:43.447Z,1.00
2022-09-06T20:19:14.457Z,1.00
2022-09-06T20:21:44.032Z,1.00
2022-09-06T20:24:12.483Z,1.00
2022-09-06T20:26:40.719Z,1.00
2022-09-06T20:29:10.185Z,1.00
2022-09-06T20:31:39.367Z,1.00
2022-09-06T20:34:07.853Z,1.00
2022-09-06T20:36:36.428Z,1.00
2022-09-06T20:39:05.082Z,1.00
2022-09-06T20:41:33.772Z,1.00
2022-09-06T20:44:02.053Z,1.00
2022-09-06T20:46:33.162Z,1.00
2022-09-06T20:49:04.400Z,1.00
2022-09-06T20:51:36.197Z,1.00
2022-09-06T20:54:06.081Z,1.00
2022-09-06T20:56:36.076Z,1.00
2022-09-06T20:59:05.915Z,1.00
2022-09-06T21:01:36.783Z,1.00
2022-09-06T21:04:09.663Z,1.00
2022-09-06T21:06:39.330Z,1.00
2022-09-06T21:09:08.940Z,1.00
2022-09-06T21:11:38.017Z,1.00
2022-09-06T21:14:07.539Z,1.00
2022-09-06T21:16:38.031Z,1.00
2022-09-06T21:19:07.751Z,1.00
2022-09-06T21:21:36.508Z,1.00
2022-09-06T21:24:06.431Z,1.00
2022-09-06T21:26:35.488Z,1.00
2022-09-06T21:29:03.645Z,1.00
2022-09-06T21:31:33.313Z,1.00
2022-09-06T21:34:05.551Z,1.00
2022-09-06T21:36:35.729Z,1.00
2022-09-06T21:39:05.689Z,1.00
2022-09-06T21:41:35.126Z,1.00
2022-09-06T21:44:05.019Z,1.00
2022-09-06T21:46:36.671Z,1.00
2022-09-06T21:49:08.286Z,1.00
2022-09-06T21:51:36.572Z,1.00
2022-09-06T21:54:05.121Z,1.00
2022-09-06T21:56:35.930Z,1.00
2022-09-06T21:59:05.171Z,1.00
2022-09-06T22:01:36.022Z,1.00
2022-09-06T22:04:06.271Z,1.00
2022-09-06T22:06:35.895Z,1.00
2022-09-06T22:09:11.127Z,1.00
2022-09-06T22:11:40.980Z,1.00
2022-09-06T22:14:11.313Z,1.00
2022-09-06T22:16:40.575Z,1.00
2022-09-06T22:19:11.130Z,1.00
2022-09-06T22:21:39.607Z,1.00
2022-09-06T22:24:10.056Z,1.00
2022-09-06T22:26:39.887Z,1.00
2022-09-06T22:29:10.694Z,1.00
2022-09-06T22:31:39.028Z,10.10
2022-09-06T22:34:11.378Z,31.90
2022-09-06T22:36:39.696Z,77.10
2022-09-06T22:39:07.757Z,77.60
2022-09-06T22:41:35.846Z,99.90
2022-09-06T22:44:05.236Z,92.20
2022-09-06T22:46:33.793Z,70.70
2022-09-06T22:49:02.469Z,51.60
2022-09-06T22:51:31.891Z,42.30
2022-09-06T22:53:59.948Z,37.50
2022-09-06T22:56:28.604Z,26.10
2022-09-06T22:58:56.612Z,12.80
2022-09-06T23:01:27.276Z,9.50
2022-09-06T23:03:55.484Z,20.50
2022-09-06T23:06:23.496Z,20.10
2022-09-06T23:08:53.110Z,13.30
2022-09-06T23:11:21.236Z,1.30
2022-09-06T23:13:49.534Z,1.00
2022-09-06T23:16:19.615Z,1.00
2022-09-06T23:18:48.583Z,5.60
2022-09-06T23:21:18.244Z,1.00
2022-09-06T23:23:47.760Z,1.00
2022-09-06T23:26:19.168Z,1.00
2022-09-06T23:28:48.274Z,1.00
2022-09-06T23:31:16.764Z,1.00
2022-09-06T23:33:44.917Z,1.00
2022-09-06T23:36:14.704Z,1.00
2022-09-06T23:38:43.418Z,1.00
2022-09-06T23:41:13.224Z,1.00
2022-09-06T23:43:43.936Z,1.00
2022-09-06T23:46:14.512Z,1.00
2022-09-06T23:48:43.216Z,1.00
2022-09-06T23:51:11.938Z,1.00
2022-09-06T23:53:42.175Z,1.00
2022-09-06T23:56:10.763Z,1.00
2022-09-06T23:58:39.467Z,1.00
